Time;durP1;ratioP1;P1;durP2;ratioP2;P2;SDS_P1;SDS_P2;PMS_P1;PMS_P2;Temp;Humidity;BMP_temperature;BMP_pressure;BME280_temperature;BME280_humidity;BME280_pressure;Samples;Min_cycle;Max_cycle;Signal;HPM_P1;HPM_P2
2022/09/01 02:03:23;;;;;;;5.87;2.00;;;;;;;-145.18;100.00;46664.31;5192784;23;20725;-70
2022/09/01 02:05:52;;;;;;;8.23;2.10;;;;;;;-145.18;100.00;46658.44;4990132;28;20113;-70
2022/09/01 02:08:20;;;;;;;3.33;2.00;;;;;;;-145.18;100.00;46664.31;4992392;28;20034;-71
2022/09/01 02:10:49;;;;;;;3.10;1.80;;;;;;;-145.18;100.00;46658.44;4992660;28;20101;-71
2022/09/01 02:13:17;;;;;;;5.57;2.40;;;;;;;-145.18;100.00;46660.41;4992335;28;20030;-70
2022/09/01 02:15:54;;;;;;;4.20;1.90;;;;;;;-145.18;100.00;46658.44;4997696;28;20044;-70
2022/09/01 02:18:25;;;;;;;4.90;2.47;;;;;;;-145.18;100.00;46662.34;5010126;28;20038;-70
2022/09/01 02:20:52;;;;;;;4.53;2.17;;;;;;;-145.18;100.00;46660.41;4973171;28;20034;-70
2022/09/01 02:23:22;;;;;;;6.73;2.33;;;;;;;-145.18;100.00;46654.53;4971813;28;20114;-72
2022/09/01 02:25:49;;;;;;;5.90;2.20;;;;;;;-145.18;100.00;46652.59;4973640;28;20182;-70
2022/09/01 02:28:17;;;;;;;3.67;2.10;;;;;;;-145.18;100.00;46654.53;4972778;28;20054;-70
2022/09/01 02:30:50;;;;;;;4.53;2.20;;;;;;;-145.18;100.00;46652.59;4973661;28;20046;-70
2022/09/01 02:33:17;;;;;;;9.27;2.67;;;;;;;-145.18;100.00;46644.78;4972735;28;20038;-71
2022/09/01 02:35:52;;;;;;;5.90;2.23;;;;;;;-145.18;100.00;46648.69;4978423;28;20499;-70
2022/09/01 02:38:19;;;;;;;5.27;2.30;;;;;;;-145.18;100.00;46646.72;4991651;28;20053;-70
2022/09/01 02:40:46;;;;;;;4.40;2.00;;;;;;;-145.18;100.00;46654.53;4992573;28;20037;-70
2022/09/01 02:43:19;;;;;;;5.47;2.30;;;;;;;-145.18;100.00;46652.59;4992303;28;20022;-72
2022/09/01 02:45:45;;;;;;;7.67;2.70;;;;;;;-145.18;100.00;46650.63;4989800;28;20038;-70
2022/09/01 02:48:11;;;;;;;3.37;2.20;;;;;;;-145.18;100.00;46652.59;4991616;28;20061;-70
2022/09/01 02:50:38;;;;;;;9.43;2.07;;;;;;;-145.18;100.00;46652.59;4992296;28;20491;-70
2022/09/01 02:53:08;;;;;;;7.50;2.30;;;;;;;-145.18;100.00;46648.69;4991762;28;20035;-70
2022/09/01 02:55:36;;;;;;;8.73;3.20;;;;;;;-145.18;100.00;46648.69;4987036;28;20062;-71
2022/09/01 02:58:01;;;;;;;3.53;2.20;;;;;;;-145.18;100.00;46650.63;4972664;28;20074;-69
2022/09/01 03:00:38;;;;;;;8.17;2.40;;;;;;;-145.18;100.00;46648.69;4987567;28;20499;-70
2022/09/01 03:03:04;;;;;;;5.23;2.40;;;;;;;-145.18;100.00;46648.69;4977990;28;20097;-70
2022/09/01 03:05:33;;;;;;;6.83;2.50;;;;;;;-145.18;100.00;46648.69;4972834;28;20039;-70
2022/09/01 03:08:00;;;;;;;5.30;2.20;;;;;;;-145.18;100.00;46644.78;4972532;28;20066;-70
2022/09/01 03:10:31;;;;;;;5.77;2.43;;;;;;;-145.18;100.00;46644.78;4972574;28;20030;-72
2022/09/01 03:13:07;;;;;;;3.73;2.33;;;;;;;-145.18;100.00;46648.69;4972253;28;20487;-70
2022/09/01 03:15:32;;;;;;;;;;;;;;;-145.18;100.00;46644.78;4973182;28;20031;-70
2022/09/01 03:17:59;;;;;;;4.90;2.40;;;;;;;-145.18;100.00;46648.69;4971907;28;19934;-70
2022/09/01 03:20:26;;;;;;;7.77;2.47;;;;;;;-145.18;100.00;46681.88;4972043;28;20450;-70
2022/09/01 03:22:52;;;;;;;3.90;2.30;;;;;;;-145.18;100.00;46646.72;4972009;28;20542;-70
2022/09/01 03:25:17;;;;;;;6.27;2.20;;;;;;;-145.18;100.00;46640.88;4972456;28;20062;-72
2022/09/01 03:27:43;;;;;;;7.43;2.53;;;;;;;-145.18;100.00;46648.69;4971962;28;20087;-71
2022/09/01 03:30:10;;;;;;;7.37;2.40;;;;;;;-145.18;100.00;46648.69;4972290;28;20089;-70
2022/09/01 03:32:35;;;;;;;4.73;2.40;;;;;;;-145.18;100.00;46646.72;4971024;28;20027;-71
2022/09/01 03:35:01;;;;;;;5.97;2.43;;;;;;;-145.18;100.00;46652.59;4972559;28;20407;-70
2022/09/01 03:37:27;;;;;;;7.47;2.60;;;;;;;-145.18;100.00;46648.69;4971872;28;20071;-72
2022/09/01 03:39:53;;;;;;;5.13;2.20;;;;;;;-145.18;100.00;46648.69;4971955;28;20062;-70
2022/09/01 03:42:24;;;;;;;3.73;2.63;;;;;;;-145.18;100.00;46646.72;4972938;28;20034;-69
2022/09/01 03:44:50;;;;;;;7.60;2.47;;;;;;;-145.18;100.00;46644.78;4987018;28;20633;-71
2022/09/01 03:47:16;;;;;;;4.20;2.80;;;;;;;-145.18;100.00;46644.78;4991048;28;20479;-70
2022/09/01 03:49:42;;;;;;;8.87;2.57;;;;;;;-145.18;100.00;46646.72;4991366;28;20023;-70
2022/09/01 03:52:09;;;;;;;8.90;2.60;;;;;;;-145.18;100.00;46650.63;4991365;28;20034;-70
2022/09/01 03:54:35;;;;;;;5.80;2.73;;;;;;;-145.18;100.00;46652.59;4991227;28;20027;-70
2022/09/01 03:57:04;;;;;;;4.43;2.20;;;;;;;-145.18;100.00;46648.69;4991850;28;20034;-71
2022/09/01 03:59:30;;;;;;;4.10;2.30;;;;;;;-145.18;100.00;46650.63;4991010;28;20031;-70
2022/09/01 04:01:56;;;;;;;7.83;2.80;;;;;;;-145.18;100.00;46652.59;4982385;28;20526;-72
2022/09/01 04:04:22;;;;;;;4.20;2.60;;;;;;;-145.18;100.00;46648.69;4971154;28;20049;-70
2022/09/01 04:06:48;;;;;;;7.90;2.67;;;;;;;-145.18;100.00;46648.69;4971646;28;20035;-71
2022/09/01 04:09:13;;;;;;;4.20;2.47;;;;;;;-145.18;100.00;46652.59;4981037;28;20047;-70
2022/09/01 04:11:40;;;;;;;7.40;2.60;;;;;;;-145.18;100.00;46648.69;4991512;28;20022;-69
2022/09/01 04:14:09;;;;;;;4.50;2.40;;;;;;;-145.18;100.00;46654.53;4990616;28;20661;-70
2022/09/01 04:19:25;;;;;;;5.30;2.50;;;;;;;-145.18;100.00;46652.59;4979254;28;20102;-69
2022/09/01 04:21:53;;;;;;;4.93;2.50;;;;;;;-145.18;100.00;46652.59;4971785;28;20019;-71
2022/09/01 04:24:20;;;;;;;4.53;2.30;;;;;;;-145.18;100.00;46654.53;4953757;28;20023;-71
2022/09/01 04:26:48;;;;;;;4.70;2.60;;;;;;;-145.18;100.00;46654.53;4971539;28;20062;-71
2022/09/01 04:29:18;;;;;;;5.37;2.50;;;;;;;-145.18;100.00;46656.50;4971320;28;20411;-72
2022/09/01 04:31:44;;;;;;;8.53;2.93;;;;;;;-145.18;100.00;46650.63;4971513;28;20023;-72
2022/09/01 04:34:12;;;;;;;6.20;2.60;;;;;;;-145.18;100.00;46646.72;4970530;28;20037;-72
2022/09/01 04:36:42;;;;;;;3.37;2.20;;;;;;;-145.18;100.00;46654.53;4971724;28;20030;-71
2022/09/01 04:39:11;;;;;;;4.30;2.40;;;;;;;-145.18;100.00;46650.63;4971297;28;20108;-71
2022/09/01 04:41:41;;;;;;;7.43;2.30;;;;;;;-145.18;100.00;46648.69;4971749;28;20031;-71
2022/09/01 04:44:07;;;;;;;10.23;2.97;;;;;;;-145.18;100.00;46648.69;4972023;28;20035;-71
2022/09/01 04:46:36;;;;;;;5.40;2.60;;;;;;;-145.18;100.00;46652.59;4975362;28;20498;-71
2022/09/01 04:49:09;;;;;;;5.93;2.33;;;;;;;-145.18;100.00;46652.59;4978805;28;20080;-71
2022/09/01 04:51:40;;;;;;;4.63;1.97;;;;;;;-145.18;100.00;46652.59;4978850;28;20026;-71
2022/09/01 04:54:11;;;;;;;4.70;2.20;;;;;;;-145.18;100.00;46654.53;4974492;28;20046;-71
2022/09/01 04:56:37;;;;;;;5.20;2.13;;;;;;;-145.18;100.00;46650.63;4974884;28;20121;-71
2022/09/01 04:59:05;;;;;;;9.37;2.80;;;;;;;-145.18;100.00;46650.63;4974580;28;20042;-71
2022/09/01 05:01:42;;;;;;;4.93;2.23;;;;;;;-145.18;100.00;46652.59;4974553;28;20030;-71
2022/09/01 05:04:11;;;;;;;12.17;3.43;;;;;;;-145.18;100.00;46654.53;4972926;28;20074;-71
2022/09/01 05:06:40;;;;;;;6.17;2.60;;;;;;;-145.18;100.00;46656.50;4975053;28;20507;-71
2022/09/01 05:09:08;;;;;;;4.60;2.20;;;;;;;-145.18;100.00;46654.53;4974260;28;20118;-71
2022/09/01 05:11:35;;;;;;;5.23;2.50;;;;;;;-145.18;100.00;46656.50;4974499;28;20154;-71
2022/09/01 05:14:01;;;;;;;5.30;2.73;;;;;;;-145.18;100.00;46652.59;4974223;28;20093;-71
2022/09/01 05:16:27;;;;;;;7.40;2.60;;;;;;;-145.18;100.00;46652.59;4974460;28;20810;-71
2022/09/01 05:18:54;;;;;;;7.07;2.73;;;;;;;-145.18;100.00;46652.59;4957145;28;20118;-71
2022/09/01 05:21:23;;;;;;;7.23;3.07;;;;;;;-145.18;100.00;46656.50;4974154;28;20077;-71
2022/09/01 05:23:50;;;;;;;7.53;2.63;;;;;;;-145.18;100.00;46658.44;4981999;28;20042;-71
2022/09/01 05:26:19;;;;;;;6.87;2.63;;;;;;;-145.18;100.00;46654.53;4962002;28;20039;-71
2022/09/01 05:28:46;;;;;;;7.70;2.57;;;;;;;-145.18;100.00;46654.53;4967655;28;20033;-71
2022/09/01 05:31:12;;;;;;;5.60;2.80;;;;;;;-145.18;100.00;46660.41;4974547;28;20035;-71
2022/09/01 05:33:44;;;;;;;7.20;2.47;;;;;;;-145.18;100.00;46658.44;4974046;28;20386;-71
2022/09/01 05:36:12;;;;;;;7.73;2.53;;;;;;;-145.18;100.00;46666.25;4973913;28;20074;-71
2022/09/01 05:38:40;;;;;;;8.70;2.40;;;;;;;-145.18;100.00;46662.34;4973434;28;20815;-72
2022/09/01 05:41:07;;;;;;;7.07;2.30;;;;;;;-145.18;100.00;46662.34;4974230;28;20027;-72
2022/09/01 05:43:34;;;;;;;4.80;2.40;;;;;;;-145.18;100.00;46662.34;4987355;28;20027;-72
2022/09/01 05:46:02;;;;;;;13.80;2.80;;;;;;;-145.18;100.00;46662.34;4977534;28;20117;-72
2022/09/01 05:48:30;;;;;;;6.77;2.20;;;;;;;-145.18;100.00;46664.31;4972656;28;20066;-71
2022/09/01 05:50:58;;;;;;;5.67;2.53;;;;;;;-145.18;100.00;46664.31;4974064;28;20030;-72
2022/09/01 05:53:24;;;;;;;3.43;2.13;;;;;;;-145.18;100.00;46670.16;4971119;28;20066;-72
2022/09/01 05:55:56;;;;;;;6.27;2.40;;;;;;;-145.18;100.00;46668.22;4973844;28;20110;-73
2022/09/01 05:58:24;;;;;;;4.93;2.30;;;;;;;-145.18;100.00;46668.22;4957350;28;20031;-73
2022/09/01 06:00:52;;;;;;;7.27;2.50;;;;;;;-145.18;100.00;46666.25;4954738;29;20028;-73
2022/09/01 06:03:19;;;;;;;7.83;2.57;;;;;;;-145.18;100.00;46668.22;4938401;28;20530;-73
2022/09/01 06:05:51;;;;;;;6.30;2.40;;;;;;;-145.18;100.00;46664.31;4973492;28;20030;-73
2022/09/01 06:08:22;;;;;;;8.37;2.83;;;;;;;-145.18;100.00;46652.59;4963318;28;20028;-73
2022/09/01 06:10:49;;;;;;;6.80;2.47;;;;;;;-145.18;100.00;46656.50;4973682;28;20495;-72
2022/09/01 06:13:20;;;;;;;2.97;1.80;;;;;;;-145.18;100.00;46654.53;4955663;28;20484;-73
2022/09/01 06:15:49;;;;;;;7.03;2.20;;;;;;;-145.18;100.00;46650.63;4970645;28;20035;-73
2022/09/01 06:18:16;;;;;;;4.10;2.03;;;;;;;-145.18;100.00;46644.78;4957489;28;20443;-73
2022/09/01 06:20:44;;;;;;;7.37;2.00;;;;;;;-145.18;100.00;46642.81;4973575;28;20042;-72
2022/09/01 06:23:14;;;;;;;14.87;2.13;;;;;;;-145.18;100.00;46642.81;4972641;28;20049;-72
2022/09/01 06:25:44;;;;;;;5.40;2.63;;;;;;;-145.18;100.00;46642.81;4973248;28;20407;-71
2022/09/01 06:28:11;;;;;;;4.30;1.90;;;;;;;-145.18;100.00;46627.19;4972669;28;20089;-71
2022/09/01 06:30:37;;;;;;;5.17;2.20;;;;;;;-145.18;100.00;46623.28;4973192;28;20518;-71
2022/09/01 06:33:08;;;;;;;4.17;2.10;;;;;;;-145.18;100.00;46652.59;4973059;28;20110;-72
2022/09/01 06:35:37;;;;;;;5.57;2.60;;;;;;;-145.18;100.00;46593.97;4972975;28;20039;-72
2022/09/01 06:38:03;;;;;;;8.40;2.00;;;;;;;-145.18;100.00;46560.78;4972677;28;20037;-71
2022/09/01 06:40:29;;;;;;;3.47;1.83;;;;;;;-145.18;100.00;46554.91;4972800;28;20416;-72
2022/09/01 06:42:55;;;;;;;6.70;2.40;;;;;;;-145.18;100.00;46539.28;4972740;28;20530;-71
2022/09/01 06:45:22;;;;;;;3.97;1.80;;;;;;;-145.18;100.00;46525.63;4967403;28;20047;-71
2022/09/01 06:47:51;;;;;;;6.00;2.10;;;;;;;-145.18;100.00;46523.66;4961257;28;20038;-71
2022/09/01 06:50:20;;;;;;;6.93;2.20;;;;;;;-145.18;100.00;46525.63;4966508;28;20050;-71
2022/09/01 06:52:49;;;;;;;7.77;2.27;;;;;;;-145.18;100.00;46527.56;4976486;28;20054;-71
2022/09/01 06:55:15;;;;;;;7.63;2.10;;;;;;;-145.18;100.00;46531.47;4974343;28;20065;-71
2022/09/01 06:57:53;;;;;;;8.10;2.10;;;;;;;-145.18;100.00;46533.44;4974476;28;20037;-71
2022/09/01 07:00:19;;;;;;;3.87;2.13;;;;;;;-145.18;100.00;46545.16;4964130;28;20027;-71
2022/09/01 07:02:53;;;;;;;9.00;2.70;;;;;;;-145.18;100.00;46541.25;4969860;28;20053;-72
2022/09/01 07:05:20;;;;;;;6.33;2.50;;;;;;;-145.18;100.00;46549.06;4969133;28;20498;-72
2022/09/01 07:07:54;;;;;;;8.40;2.20;;;;;;;-145.18;100.00;46545.16;4980243;28;20034;-72
2022/09/01 07:10:24;;;;;;;12.70;2.80;;;;;;;-145.18;100.00;46549.06;4988062;28;20038;-73
2022/09/01 07:12:55;;;;;;;8.87;2.37;;;;;;;-145.18;100.00;46554.91;4991543;28;20076;-73
2022/09/01 07:15:22;;;;;;;6.10;2.30;;;;;;;-145.18;100.00;46547.09;4990981;28;20456;-72
2022/09/01 07:17:51;;;;;;;7.60;2.30;;;;;;;-145.18;100.00;46543.19;4991497;28;20035;-73
2022/09/01 07:20:19;;;;;;;5.87;2.63;;;;;;;-145.18;100.00;46545.16;4991497;28;20076;-72
2022/09/01 07:22:46;;;;;;;18.33;2.67;;;;;;;-145.18;100.00;46551.00;4990915;28;20076;-71
2022/09/01 07:25:11;;;;;;;6.53;2.33;;;;;;;-145.18;100.00;46564.69;4991217;28;20034;-71
2022/09/01 07:27:39;;;;;;;10.57;2.27;;;;;;;-145.18;100.00;46562.72;4991370;28;20053;-70
2022/09/01 07:30:07;;;;;;;10.63;2.20;;;;;;;-145.18;100.00;46574.44;4991416;28;20033;-71
2022/09/01 07:32:33;;;;;;;8.17;2.90;;;;;;;-145.18;100.00;46590.06;4977535;28;20031;-71
2022/09/01 07:34:59;;;;;;;18.03;2.87;;;;;;;-145.18;100.00;46592.03;4971541;28;20039;-73
2022/09/01 07:37:25;;;;;;;10.27;2.43;;;;;;;-145.18;100.00;46582.25;4954573;28;20066;-71
2022/09/01 07:39:51;;;;;;;8.63;2.40;;;;;;;-145.18;100.00;46607.66;4971841;28;20105;-71
2022/09/01 07:42:18;;;;;;;14.60;2.93;;;;;;;-145.18;100.00;46582.25;4971971;28;20796;-73
2022/09/01 07:44:44;;;;;;;7.50;2.10;;;;;;;-145.18;100.00;46597.88;4971445;28;20027;-71
2022/09/01 07:47:10;;;;;;;9.67;2.70;;;;;;;-145.18;100.00;46601.78;4972151;28;20399;-73
2022/09/01 07:49:36;;;;;;;9.87;2.10;;;;;;;-145.18;100.00;46617.41;4971550;28;20027;-73
2022/09/01 07:52:04;;;;;;;8.70;2.27;;;;;;;-145.18;100.00;46582.25;4972292;28;20559;-73
2022/09/01 07:54:30;;;;;;;6.03;2.60;;;;;;;-145.18;100.00;46629.13;4971345;28;20031;-71
2022/09/01 07:56:55;;;;;;;5.00;2.40;;;;;;;-145.18;100.00;46705.31;4972014;28;20034;-71
2022/09/01 07:59:22;;;;;;;4.90;2.20;;;;;;;-145.18;100.00;46697.50;4971249;28;20039;-71
2022/09/01 08:01:48;;;;;;;6.43;1.97;;;;;;;-145.18;100.00;46728.75;4971804;28;20399;-71
2022/09/01 08:04:14;;;;;;;7.13;2.50;;;;;;;-145.18;100.00;46887.00;4971677;28;20435;-73
2022/09/01 08:06:39;;;;;;;8.23;2.23;;;;;;;-145.18;100.00;46851.81;4971896;28;20031;-71
2022/09/01 08:09:09;;;;;;;7.10;2.50;;;;;;;-145.18;100.00;47068.66;4971474;28;20046;-73
2022/09/01 08:11:35;;;;;;;9.30;2.43;;;;;;;-145.18;100.00;47156.56;4971817;28;20105;-73
2022/09/01 08:14:01;;;;;;;9.93;3.37;;;;;;;-145.18;100.00;47140.94;4971582;28;20066;-70
2022/09/01 08:16:29;;;;;;;10.50;2.07;;;;;;;-145.18;100.00;47101.88;4971713;28;20126;-73
2022/09/01 08:18:54;;;;;;;7.90;2.30;;;;;;;-145.18;100.00;47226.91;4972207;28;20062;-73
2022/09/01 08:21:22;;;;;;;10.80;2.47;;;;;;;-145.18;100.00;47205.41;4975348;28;20066;-73
2022/09/01 08:23:48;;;;;;;6.87;2.20;;;;;;;-145.18;100.00;47205.41;4975415;28;20046;-73
2022/09/01 08:26:17;;;;;;;9.57;2.27;;;;;;;-145.18;100.00;47207.38;4975562;28;20072;-73
2022/09/01 08:28:43;;;;;;;8.50;2.10;;;;;;;-145.18;100.00;47180.03;4958011;28;20790;-73
2022/09/01 08:31:11;;;;;;;11.17;2.60;;;;;;;-145.18;100.00;47195.66;4975537;28;20039;-73
2022/09/01 08:33:40;;;;;;;10.93;2.70;;;;;;;-145.18;100.00;47156.56;4975274;28;20112;-73
2022/09/01 08:36:08;;;;;;;5.77;2.23;;;;;;;-145.18;100.00;47150.72;4975652;28;20058;-73
2022/09/01 08:38:33;;;;;;;8.30;2.33;;;;;;;-145.18;100.00;47131.19;4975246;28;20125;-73
2022/09/01 08:41:02;;;;;;;7.77;2.03;;;;;;;-145.18;100.00;47121.41;4975499;28;20768;-73
2022/09/01 08:43:33;;;;;;;7.17;2.40;;;;;;;-145.18;100.00;47103.81;4974838;28;20380;-73
2022/09/01 08:46:14;;;;;;;3.10;2.20;;;;;;;-145.18;100.00;47099.91;4975414;28;20042;-73
2022/09/01 08:48:43;;;;;;;10.13;2.60;;;;;;;-145.18;100.00;47088.19;4974559;28;20188;-73
2022/09/01 08:51:24;;;;;;;12.40;1.97;;;;;;;-145.18;100.00;47097.97;4975434;28;20051;-73
2022/09/01 08:54:15;;;;;;;8.83;2.40;;;;;;;-145.18;100.00;47074.53;4974119;28;20071;-72
2022/09/01 08:56:42;;;;;;;5.43;2.27;;;;;;;-145.18;100.00;47080.38;4974974;28;20180;-71
2022/09/01 08:59:09;;;;;;;6.67;2.20;;;;;;;-145.18;100.00;47068.66;4974460;28;20027;-74
2022/09/01 09:01:35;;;;;;;13.27;3.00;;;;;;;-145.18;100.00;47064.75;4974574;28;20384;-72
2022/09/01 09:04:12;;;;;;;10.77;2.30;;;;;;;-145.18;100.00;47066.72;4974441;28;20061;-71
2022/09/01 09:06:53;;;;;;;6.17;2.23;;;;;;;-145.18;100.00;47068.66;4974553;28;20062;-71
2022/09/01 09:09:19;;;;;;;7.70;2.40;;;;;;;-145.18;100.00;47066.72;4974037;28;20031;-71
2022/09/01 09:12:09;;;;;;;5.10;2.27;;;;;;;-145.18;100.00;47068.66;4974657;28;20031;-71
2022/09/01 09:14:54;;;;;;;9.33;2.83;;;;;;;-145.18;100.00;47055.00;4973162;28;20487;-74
2022/09/01 09:17:26;;;;;;;13.98;2.53;;;;;;;-145.18;100.00;47051.09;4974439;28;20037;-71
2022/09/01 09:19:52;;;;;;;6.50;2.53;;;;;;;-145.18;100.00;47047.19;4973952;28;20031;-71
2022/09/01 09:22:19;;;;;;;6.33;2.57;;;;;;;-145.18;100.00;47047.19;4974419;28;20113;-72
2022/09/01 09:24:54;;;;;;;8.43;2.70;;;;;;;-145.18;100.00;47039.34;4974037;28;20062;-71
2022/09/01 09:27:30;;;;;;;10.68;2.45;;;;;;;-145.18;100.00;47035.44;4974271;28;20041;-74
2022/09/01 09:30:01;;;;;;;;;;;;;;;-145.18;100.00;47039.34;4974172;28;20066;-74
2022/09/01 09:32:50;;;;;;;9.73;2.20;;;;;;;-145.18;100.00;47033.50;4973594;28;19982;-72
2022/09/01 09:35:36;;;;;;;12.73;2.63;;;;;;;-145.18;100.00;47023.72;4973640;28;20034;-71
2022/09/01 09:38:30;;;;;;;;;;;;;;;-145.18;100.00;47013.97;4974612;28;20027;-72
2022/09/01 09:41:06;;;;;;;11.37;2.33;;;;;;;-145.18;100.00;47012.00;4974137;28;19961;-71
2022/09/01 09:43:41;;;;;;;3.93;1.97;;;;;;;-145.18;100.00;47012.00;4973808;28;20135;-72
2022/09/01 09:46:23;;;;;;;5.27;2.20;;;;;;;-145.18;100.00;47012.00;4974092;28;20035;-71
2022/09/01 09:49:19;;;;;;;8.43;2.33;;;;;;;-145.18;100.00;47012.00;4973725;28;20320;-72
2022/09/01 09:51:48;;;;;;;3.93;2.20;;;;;;;-145.18;100.00;47006.16;4973873;28;20475;-73
2022/09/01 09:54:27;;;;;;;6.73;2.37;;;;;;;-145.18;100.00;47015.91;4973297;28;20392;-73
2022/09/01 09:57:07;;;;;;;6.63;2.30;;;;;;;-145.18;100.00;46998.34;4973657;28;20041;-73
2022/09/01 09:59:37;;;;;;;9.77;2.20;;;;;;;-145.18;100.00;47010.06;4973153;28;20078;-71
2022/09/01 10:02:24;;;;;;;8.47;2.03;;;;;;;-145.18;100.00;46996.38;4973857;28;20117;-73
2022/09/01 10:04:50;;;;;;;4.67;1.80;;;;;;;-145.18;100.00;47000.28;4973476;28;20039;-73
2022/09/01 10:07:36;;;;;;;6.90;1.87;;;;;;;-145.18;100.00;46994.44;4956258;28;20089;-72
2022/09/01 10:10:23;;;;;;;2.40;1.60;;;;;;;-145.18;100.00;46992.47;4949591;28;20535;-72
2022/09/01 10:12:52;;;;;;;5.20;1.80;;;;;;;-145.18;100.00;46992.47;4970656;28;20039;-73
2022/09/01 10:15:20;;;;;;;3.30;1.70;;;;;;;-145.18;100.00;47002.25;4972914;28;20034;-73
2022/09/01 10:17:48;;;;;;;3.40;1.80;;;;;;;-145.18;100.00;46980.75;4973272;28;20049;-73
2022/09/01 10:20:22;;;;;;;6.37;1.80;;;;;;;-145.18;100.00;46988.56;4972898;28;20026;-71
2022/09/01 10:22:49;;;;;;;3.83;1.67;;;;;;;-145.18;100.00;46992.47;4973316;28;20057;-73
2022/09/01 10:25:42;;;;;;;4.85;1.80;;;;;;;-145.18;100.00;46984.66;4972517;28;20373;-74
2022/09/01 10:28:13;;;;;;;3.58;1.77;;;;;;;-145.18;100.00;46972.94;4969580;28;20141;-71
2022/09/01 10:30:42;;;;;;;6.32;1.73;;;;;;;-145.18;100.00;46967.09;4972648;28;20046;-71
2022/09/01 10:33:09;;;;;;;7.13;1.90;;;;;;;-145.18;100.00;46969.03;4973259;28;20042;-73
2022/09/01 10:35:45;;;;;;;4.25;1.70;;;;;;;-145.18;100.00;46969.03;4972243;28;20046;-73
2022/09/01 10:38:21;;;;;;;14.20;1.83;;;;;;;-145.18;100.00;46969.03;4972517;28;20538;-71
2022/09/01 10:41:05;;;;;;;3.45;1.73;;;;;;;-145.18;100.00;46961.22;4972655;28;20042;-73
2022/09/01 10:43:43;;;;;;;9.65;2.00;;;;;;;-145.18;100.00;46978.81;4972232;28;20039;-72
2022/09/01 10:46:18;;;;;;;4.03;1.80;;;;;;;-145.18;99.23;46953.41;4972433;28;20045;-73
2022/09/01 10:48:44;;;;;;;7.53;1.88;;;;;;;-145.18;95.27;46953.41;4972336;28;20093;-73
2022/09/01 10:51:12;;;;;;;4.30;1.40;;;;;;;-145.18;94.21;46957.31;4972691;28;20135;-73
2022/09/01 10:53:49;;;;;;;9.55;1.60;;;;;;;-145.18;92.98;46941.69;4972349;28;20038;-73
2022/09/01 10:56:42;;;;;;;2.22;1.50;;;;;;;-145.18;88.71;46949.50;4972071;28;20046;-73
2022/09/01 10:59:22;;;;;;;6.95;1.58;;;;;;;-145.18;85.93;46943.63;4971384;28;20034;-73
2022/09/01 11:01:48;;;;;;;5.03;1.30;;;;;;;-145.18;91.25;46955.34;4972639;28;20058;-73
2022/09/01 11:04:21;;;;;;;4.40;1.60;;;;;;;-145.18;89.05;46941.69;4971881;28;20447;-74
2022/09/01 11:06:49;;;;;;;2.55;1.10;;;;;;;-145.18;82.24;46937.78;4972124;28;20031;-73
2022/09/01 11:09:25;;;;;;;3.28;1.05;;;;;;;-145.18;82.45;46947.53;4972041;28;20026;-74
2022/09/01 11:12:16;;;;;;;6.18;1.33;;;;;;;-145.18;78.55;46961.22;4955344;28;20041;-74
2022/09/01 11:14:49;;;;;;;3.80;1.27;;;;;;;-145.18;79.06;46949.50;4971383;28;20392;-73
2022/09/01 11:17:28;;;;;;;5.22;1.30;;;;;;;-145.18;71.05;46933.88;4971429;28;20035;-73
2022/09/01 11:20:04;;;;;;;3.42;1.27;;;;;;;-145.18;72.69;46949.50;4971393;28;20046;-73
2022/09/01 11:22:39;;;;;;;1.58;1.23;;;;;;;-145.18;74.46;46943.63;4972256;28;20394;-73
2022/09/01 11:25:05;;;;;;;4.57;1.40;;;;;;;-145.18;71.83;46945.59;4971961;28;20027;-73
2022/09/01 11:27:48;;;;;;;5.32;1.38;;;;;;;-145.18;71.30;46937.78;4971625;28;20636;-73
2022/09/01 11:30:32;;;;;;;3.55;1.10;;;;;;;-145.18;67.42;46935.81;4971819;28;20661;-73
2022/09/01 11:33:21;;;;;;;7.68;1.38;;;;;;;-145.18;68.90;46949.50;4972274;28;20250;-73
2022/09/01 11:35:56;;;;;;;4.53;1.20;;;;;;;-145.18;66.09;46951.44;4950614;28;20110;-73
2022/09/01 11:38:22;;;;;;;3.15;1.10;;;;;;;-145.18;69.21;46924.09;4971837;28;20035;-73
2022/09/01 11:40:55;;;;;;;2.00;0.95;;;;;;;-145.18;67.04;46929.97;4971484;28;20070;-73
2022/09/01 11:43:22;;;;;;;2.42;1.27;;;;;;;-145.18;62.70;46926.06;4971709;28;20030;-73
2022/09/01 11:46:09;;;;;;;3.38;1.40;;;;;;;-145.18;62.18;46922.16;4971526;28;20495;-73
2022/09/01 11:48:35;;;;;;;4.75;1.27;;;;;;;-145.18;62.71;46937.78;4971312;28;20121;-73
2022/09/01 11:51:02;;;;;;;2.30;1.40;;;;;;;-145.18;65.12;46928.00;4971101;28;20063;-73
2022/09/01 11:53:28;;;;;;;6.18;1.20;;;;;;;-145.18;64.41;46918.25;4971026;28;20046;-73
2022/09/01 11:55:56;;;;;;;3.60;1.20;;;;;;;-145.18;60.46;46920.19;4971262;28;20031;-73
2022/09/01 11:58:33;;;;;;;5.75;1.60;;;;;;;-145.18;59.65;46926.06;4971671;28;20031;-73
2022/09/01 12:01:18;;;;;;;1.92;1.20;;;;;;;-145.18;59.29;46918.25;4970749;28;20093;-73
2022/09/01 12:03:45;;;;;;;3.03;1.15;;;;;;;-145.18;54.97;46918.25;4971573;28;20492;-73
2022/09/01 12:06:17;;;;;;;1.55;1.20;;;;;;;-145.18;56.81;46900.66;4971264;28;20027;-73
2022/09/01 12:08:52;;;;;;;3.15;1.20;;;;;;;-145.18;54.36;46910.44;4971528;28;20034;-73
2022/09/01 12:11:21;;;;;;;11.20;1.58;;;;;;;-145.18;53.25;46894.81;4970620;28;20492;-73
2022/09/01 12:14:18;;;;;;;6.45;1.70;;;;;;;-145.18;50.48;46877.22;4971687;28;20459;-73
2022/09/01 12:16:44;;;;;;;1.52;1.02;;;;;;;-145.18;45.49;46877.22;4970661;28;20035;-73
2022/09/01 12:19:23;;;;;;;3.70;1.17;;;;;;;-145.18;44.80;46867.44;4971705;28;20038;-73
2022/09/01 12:22:13;;;;;;;3.72;1.20;;;;;;;-145.18;44.33;46834.25;4971455;28;20038;-73
2022/09/01 12:24:44;;;;;;;2.55;1.00;;;;;;;-145.18;41.59;46816.66;4970749;28;20113;-73
2022/09/01 12:27:09;;;;;;;3.55;0.80;;;;;;;-145.18;38.72;46803.00;4971488;28;20034;-73
2022/09/01 12:29:36;;;;;;;1.98;1.00;;;;;;;-145.18;37.31;46799.09;4970859;28;20065;-73
2022/09/01 12:32:03;;;;;;;1.90;0.93;;;;;;;-145.18;35.77;46812.75;4954039;28;20129;-73
2022/09/01 12:34:32;;;;;;;3.15;0.80;;;;;;;-145.18;37.46;46820.56;4970512;28;20031;-73
2022/09/01 12:37:05;;;;;;;3.75;1.00;;;;;;;-145.18;38.44;46820.56;4971263;28;20122;-73
2022/09/01 12:39:45;;;;;;;3.80;1.25;;;;;;;-145.18;38.96;46824.47;4970747;28;20034;-73
2022/09/01 12:42:23;;;;;;;3.45;0.90;;;;;;;-145.18;37.46;46832.28;4970627;28;20038;-73
2022/09/01 12:44:58;;;;;;;11.18;1.88;;;;;;;-145.18;37.45;46883.09;4970561;28;20033;-73
2022/09/01 12:47:32;;;;;;;6.85;0.98;;;;;;;-145.18;38.52;46879.19;4965236;28;20027;-73
2022/09/01 12:49:59;;;;;;;5.37;0.93;;;;;;;-145.18;37.74;46898.72;4951582;29;20110;-73
2022/09/01 12:52:27;;;;;;;1.70;0.90;;;;;;;-145.18;37.96;46890.91;4951846;29;20281;-73
2022/09/01 12:55:13;;;;;;;1.63;0.90;;;;;;;-145.18;37.81;46896.75;4951459;29;20030;-73
2022/09/01 12:57:47;;;;;;;1.42;0.90;;;;;;;-145.18;37.18;46879.19;4951656;29;20408;-73
2022/09/01 13:00:18;;;;;;;2.75;0.93;;;;;;;-145.18;36.97;46902.63;4951417;29;20028;-73
2022/09/01 13:02:51;;;;;;;3.22;0.93;;;;;;;-145.18;37.25;46875.28;4951319;29;20049;-73
2022/09/01 13:05:29;;;;;;;2.17;0.90;;;;;;;-145.18;35.78;46883.09;4952010;28;20031;-73
2022/09/01 13:07:56;;;;;;;2.78;0.70;;;;;;;-145.18;34.63;46871.38;4955289;29;20046;-73
2022/09/01 13:10:23;;;;;;;3.13;1.10;;;;;;;-145.18;36.22;46892.84;4954515;29;20162;-73
2022/09/01 13:12:50;;;;;;;2.30;0.77;;;;;;;-145.18;36.75;46881.13;4955165;29;20512;-73
2022/09/01 13:15:15;;;;;;;5.07;0.98;;;;;;;-145.18;36.00;46888.94;4953657;29;20154;-73
2022/09/01 13:17:42;;;;;;;2.92;0.98;;;;;;;-145.18;35.38;46867.44;4954763;29;20122;-73
2022/09/01 13:20:10;;;;;;;5.65;1.00;;;;;;;-145.18;35.36;46873.31;4954984;29;20126;-73
2022/09/01 13:22:36;;;;;;;2.53;1.00;;;;;;;-145.18;34.67;46885.03;4954737;29;20044;-73
2022/09/01 13:25:03;;;;;;;13.98;1.20;;;;;;;-145.18;31.72;46879.19;4954595;29;20031;-73
2022/09/01 13:27:28;;;;;;;4.88;1.00;;;;;;;-145.18;31.57;46873.31;4954040;29;20043;-73
2022/09/01 13:29:54;;;;;;;5.88;1.10;;;;;;;-145.18;32.97;46869.41;4954556;29;20035;-73
2022/09/01 13:32:20;;;;;;;4.05;1.08;;;;;;;-145.18;33.07;46875.28;4954612;29;20043;-73